createdAt,value
2018-08-19T00:00:58.373Z,100206.66
2018-08-19T00:03:26.161Z,100211.98
2018-08-19T00:05:53.897Z,100216.23
2018-08-19T00:08:21.650Z,100210.13
2018-08-19T00:11:04.497Z,100213.54
2018-08-19T00:13:32.356Z,100224.13
2018-08-19T00:16:00.170Z,100219.41
2018-08-19T00:18:27.990Z,100223.94
2018-08-19T00:20:55.834Z,100231.48
2018-08-19T00:23:23.542Z,100220.36
2018-08-19T00:25:51.287Z,100223.39
2018-08-19T00:28:20.210Z,100219.03
2018-08-19T00:30:47.978Z,100224.83
2018-08-19T00:33:15.670Z,100226.73
2018-08-19T00:35:43.447Z,100233.73
2018-08-19T00:38:12.801Z,100239.60
2018-08-19T00:40:41.035Z,100235.63
2018-08-19T00:43:08.825Z,100239.55
2018-08-19T00:45:36.597Z,100242.97
2018-08-19T00:48:04.401Z,100245.75
2018-08-19T00:50:32.217Z,100240.95
2018-08-19T00:52:59.912Z,100252.20
2018-08-19T00:55:36.045Z,100252.76
2018-08-19T00:58:05.860Z,100252.62
2018-08-19T01:00:33.547Z,100253.08
2018-08-19T01:03:01.250Z,100253.18
2018-08-19T01:05:29.059Z,100251.80
2018-08-19T01:07:56.803Z,100250.39
2018-08-19T01:10:24.494Z,100253.54
2018-08-19T01:12:52.193Z,100254.26
2018-08-19T01:15:19.877Z,100254.94
2018-08-19T01:17:47.569Z,100266.63
2018-08-19T01:20:20.358Z,100261.86
2018-08-19T01:22:48.191Z,100268.96
2018-08-19T01:25:16.154Z,100264.02
2018-08-19T01:27:43.911Z,100265.70
2018-08-19T01:30:20.439Z,100273.95
2018-08-19T01:32:48.191Z,100279.72
2018-08-19T01:35:16.065Z,100281.98
2018-08-19T01:37:43.795Z,100278.33
2018-08-19T01:40:15.138Z,100288.79
2018-08-19T01:42:42.801Z,100282.02
2018-08-19T01:45:10.754Z,100285.58
2018-08-19T01:47:38.481Z,100291.77
2018-08-19T01:50:12.100Z,100291.53
2018-08-19T01:52:40.264Z,100288.67
2018-08-19T01:55:08.436Z,100292.58
2018-08-19T01:57:41.674Z,100287.92
2018-08-19T02:00:10.401Z,100287.57
2018-08-19T02:02:52.166Z,100291.64
2018-08-19T02:05:20.188Z,100294.84
2018-08-19T02:07:48.153Z,100291.91
2018-08-19T02:10:16.538Z,100296.95
2018-08-19T02:12:44.198Z,100296.23
2018-08-19T02:15:11.869Z,100297.09
2018-08-19T02:17:48.117Z,100297.20
2018-08-19T02:20:16.249Z,100305.73
2018-08-19T02:22:48.719Z,100312.49
2018-08-19T02:25:16.402Z,100305.80
2018-08-19T02:27:44.305Z,100311.02
2018-08-19T02:30:12.745Z,100312.72
2018-08-19T02:32:40.426Z,100308.69
2018-08-19T02:35:08.274Z,100308.51
2018-08-19T02:37:36.097Z,100310.55
2018-08-19T02:40:03.909Z,100315.52
2018-08-19T02:42:32.299Z,100310.73
2018-08-19T02:45:06.438Z,100310.82
2018-08-19T02:47:34.734Z,100311.73
2018-08-19T02:50:02.648Z,100316.23
2018-08-19T02:52:32.400Z,100316.22
2018-08-19T02:55:01.346Z,100319.08
2018-08-19T02:57:29.779Z,100328.73
2018-08-19T02:59:58.362Z,100332.34
2018-08-19T03:02:27.277Z,100334.03
2018-08-19T03:04:55.848Z,100329.89
2018-08-19T03:07:25.783Z,100341.80
2018-08-19T03:09:59.192Z,100338.99
2018-08-19T03:12:27.090Z,100342.70
2018-08-19T03:14:55.276Z,100344.65
2018-08-19T03:17:23.542Z,100347.47
2018-08-19T03:19:52.822Z,100346.26
2018-08-19T03:22:20.554Z,100355.85
2018-08-19T03:24:48.269Z,100360.47
2018-08-19T03:27:15.992Z,100360.47
2018-08-19T03:29:49.132Z,100356.78
2018-08-19T03:32:16.823Z,100362.70
2018-08-19T03:34:44.464Z,100363.78
2018-08-19T03:37:14.226Z,100365.70
2018-08-19T03:39:42.183Z,100363.15
2018-08-19T03:42:10.449Z,100356.77
2018-08-19T03:44:38.113Z,100354.38
2018-08-19T03:47:23.719Z,100365.63
2018-08-19T03:49:51.441Z,100366.67
2018-08-19T03:52:19.084Z,100362.55
2018-08-19T03:54:47.466Z,100360.23
2018-08-19T03:57:18.916Z,100366.88
2018-08-19T03:59:46.697Z,100363.15
2018-08-19T04:02:14.397Z,100365.05
2018-08-19T04:04:42.066Z,100376.70
2018-08-19T04:07:09.749Z,100376.29
2018-08-19T04:09:37.471Z,100373.19
2018-08-19T04:12:11.441Z,100384.08
2018-08-19T04:14:39.147Z,100387.97
2018-08-19T04:17:07.628Z,100395.92
2018-08-19T04:19:35.382Z,100398.31
2018-08-19T04:22:04.525Z,100404.70
2018-08-19T04:24:32.874Z,100404.86
2018-08-19T04:27:05.689Z,100407.76
2018-08-19T04:29:33.991Z,100411.52
2018-08-19T04:32:02.282Z,100414.47
2018-08-19T04:34:29.990Z,100407.30
2018-08-19T04:36:57.664Z,100412.94
2018-08-19T04:39:25.338Z,100424.22
2018-08-19T04:41:53.044Z,100426.44
2018-08-19T04:44:20.678Z,100416.56
2018-08-19T04:46:48.338Z,100420.81
2018-08-19T04:49:15.994Z,100433.30
2018-08-19T04:51:43.639Z,100438.59
2018-08-19T04:54:11.332Z,100436.20
2018-08-19T04:56:39.132Z,100437.13
2018-08-19T04:59:06.811Z,100436.13
2018-08-19T05:01:34.471Z,100439.84
2018-08-19T05:04:02.174Z,100436.11
2018-08-19T05:06:29.827Z,100446.06
2018-08-19T05:08:57.525Z,100448.56
2018-08-19T05:11:25.183Z,100445.75
2018-08-19T05:13:52.896Z,100441.01
2018-08-19T05:16:20.561Z,100451.16
2018-08-19T05:18:53.773Z,100454.52
2018-08-19T05:21:24.725Z,100456.98
2018-08-19T05:23:52.355Z,100462.50
2018-08-19T05:26:20.060Z,100469.14
2018-08-19T05:29:19.545Z,100470.14
2018-08-19T05:31:52.833Z,100481.27
2018-08-19T05:34:26.045Z,100477.74
2018-08-19T05:36:53.733Z,100480.27
2018-08-19T05:39:21.411Z,100482.83
2018-08-19T05:42:15.344Z,100486.58
2018-08-19T05:44:43.523Z,100486.30
2018-08-19T05:47:12.987Z,100487.28
2018-08-19T05:49:42.937Z,100489.16
2018-08-19T05:52:16.122Z,100491.51
2018-08-19T05:54:49.704Z,100482.94
2018-08-19T05:57:17.939Z,100489.82
2018-08-19T05:59:47.046Z,100495.63
2018-08-19T06:02:15.214Z,100486.25
2018-08-19T06:04:43.285Z,100494.39
2018-08-19T06:07:10.989Z,100508.27
2018-08-19T06:09:38.659Z,100502.66
2018-08-19T06:12:06.473Z,100509.83
2018-08-19T06:14:34.145Z,100515.03
2018-08-19T06:17:03.960Z,100519.16
2018-08-19T06:19:32.466Z,100533.11
2018-08-19T06:22:00.206Z,100528.01
2018-08-19T06:24:27.917Z,100533.61
2018-08-19T06:26:55.556Z,100537.61
2018-08-19T06:29:37.719Z,100531.73
2018-08-19T06:32:05.650Z,100536.08
2018-08-19T06:34:33.413Z,100540.27
2018-08-19T06:37:01.063Z,100546.06
2018-08-19T06:39:28.737Z,100553.91
2018-08-19T06:41:56.410Z,100547.47
2018-08-19T06:44:24.139Z,100548.59
2018-08-19T06:46:51.811Z,100556.95
2018-08-19T06:49:19.837Z,100563.45
2018-08-19T06:51:48.444Z,100562.00
2018-08-19T06:54:16.141Z,100565.14
2018-08-19T06:56:43.832Z,100568.73
2018-08-19T06:59:11.553Z,100568.80
2018-08-19T07:01:39.257Z,100567.13
2018-08-19T07:04:07.551Z,100569.95
2018-08-19T07:06:35.309Z,100566.84
2018-08-19T07:09:03.246Z,100570.56
2018-08-19T07:11:31.061Z,100572.53
2018-08-19T07:13:58.738Z,100571.49
2018-08-19T07:16:26.391Z,100568.13
2018-08-19T07:18:54.078Z,100574.98
2018-08-19T07:21:21.775Z,100569.52
2018-08-19T07:23:49.663Z,100578.58
2018-08-19T07:26:17.285Z,100581.09
2018-08-19T07:28:44.981Z,100582.72
2018-08-19T07:31:12.643Z,100580.05
2018-08-19T07:33:40.334Z,100586.44
2018-08-19T07:36:08.015Z,100586.59
2018-08-19T07:38:35.712Z,100593.05
2018-08-19T07:41:03.465Z,100591.37
2018-08-19T07:43:31.162Z,100585.87
2018-08-19T07:45:58.845Z,100598.38
2018-08-19T07:48:26.510Z,100601.22
2018-08-19T07:50:54.195Z,100598.40
2018-08-19T07:53:21.866Z,100607.11
2018-08-19T07:55:49.558Z,100607.17
2018-08-19T07:58:28.406Z,100613.31
2018-08-19T08:00:56.070Z,100604.03
2018-08-19T08:03:23.738Z,100615.05
2018-08-19T08:05:51.404Z,100611.69
2018-08-19T08:08:19.089Z,100613.20
2018-08-19T08:10:46.755Z,100609.20
2018-08-19T08:13:14.566Z,100616.29
2018-08-19T08:15:47.881Z,100614.26
2018-08-19T08:18:15.594Z,100626.11
2018-08-19T08:20:43.337Z,100620.48
2018-08-19T08:23:18.053Z,100633.59
2018-08-19T08:25:45.773Z,100633.89
2018-08-19T08:28:13.453Z,100630.23
2018-08-19T08:30:41.150Z,100624.00
2018-08-19T08:33:08.840Z,100629.12
2018-08-19T08:35:40.996Z,100636.21
2018-08-19T08:38:10.217Z,100636.71
2018-08-19T08:40:37.965Z,100635.27
2018-08-19T08:43:05.695Z,100642.64
2018-08-19T08:45:39.274Z,100649.27
2018-08-19T08:48:07.522Z,100650.72
2018-08-19T08:50:35.270Z,100645.43
2018-08-19T08:53:03.051Z,100654.95
2018-08-19T08:55:30.917Z,100652.05
2018-08-19T08:57:58.648Z,100659.78
2018-08-19T09:00:26.341Z,100640.95
2018-08-19T09:02:54.070Z,100650.52
2018-08-19T09:05:21.805Z,100645.30
2018-08-19T09:07:49.642Z,100654.58
2018-08-19T09:10:17.323Z,100649.79
2018-08-19T09:12:49.729Z,100656.35
2018-08-19T09:15:17.491Z,100651.41
2018-08-19T09:17:45.273Z,100655.61
2018-08-19T09:20:13.256Z,100648.34
2018-08-19T09:22:41.302Z,100658.73
2018-08-19T09:25:09.797Z,100291.22
2018-08-19T09:27:38.212Z,100653.95
2018-08-19T09:30:06.440Z,100647.73
2018-08-19T09:32:36.035Z,100655.55
2018-08-19T09:35:03.768Z,100647.88
2018-08-19T09:37:31.547Z,100652.75
2018-08-19T09:39:59.299Z,100657.03
2018-08-19T09:42:26.979Z,100650.18
2018-08-19T09:44:54.684Z,100659.56
2018-08-19T09:47:22.342Z,100659.27
2018-08-19T09:49:50.212Z,100664.86
2018-08-19T09:52:17.906Z,100673.40
2018-08-19T09:54:45.733Z,100668.18
2018-08-19T09:57:13.537Z,100673.09
2018-08-19T09:59:41.464Z,100664.94
2018-08-19T10:02:09.806Z,100674.92
2018-08-19T10:04:37.501Z,100681.87
2018-08-19T10:07:13.651Z,100673.33
2018-08-19T10:09:41.664Z,100675.87
2018-08-19T10:12:10.105Z,100681.56
2018-08-19T10:14:37.770Z,100684.75
2018-08-19T10:17:05.665Z,100674.34
2018-08-19T10:19:33.344Z,100675.69
2018-08-19T10:22:01.032Z,100672.50
2018-08-19T10:24:29.865Z,100678.09
2018-08-19T10:26:58.034Z,100674.05
2018-08-19T10:29:25.800Z,100681.48
2018-08-19T10:31:56.204Z,100680.73
2018-08-19T10:34:34.556Z,100686.09
2018-08-19T10:37:02.717Z,100685.32
2018-08-19T10:39:30.504Z,100679.19
2018-08-19T10:42:33.085Z,100681.70
2018-08-19T10:45:03.518Z,100691.14
2018-08-19T10:47:31.144Z,100691.53
2018-08-19T10:50:05.339Z,100690.03
2018-08-19T10:52:34.496Z,100693.52
2018-08-19T10:55:02.184Z,100692.66
2018-08-19T10:57:29.902Z,100689.34
2018-08-19T10:59:58.668Z,100689.33
2018-08-19T11:02:26.395Z,100703.27
2018-08-19T11:04:56.889Z,100702.63
2018-08-19T11:07:24.610Z,100697.23
2018-08-19T11:10:09.873Z,100694.45
2018-08-19T11:12:37.659Z,100700.33
2018-08-19T11:15:11.698Z,100700.28
2018-08-19T11:17:39.438Z,100702.66
2018-08-19T11:20:07.261Z,100713.72
2018-08-19T11:22:34.944Z,100718.80
2018-08-19T11:25:02.696Z,100716.16
2018-08-19T11:27:30.402Z,100712.31
2018-08-19T11:29:58.131Z,100706.57
2018-08-19T11:32:37.283Z,100715.02
2018-08-19T11:35:05.562Z,100719.31
2018-08-19T11:37:33.226Z,100720.93
2018-08-19T11:40:00.893Z,100728.45
2018-08-19T11:42:29.025Z,100726.61
2018-08-19T11:44:56.792Z,100720.94
2018-08-19T11:47:24.470Z,100718.57
2018-08-19T11:49:52.182Z,100721.48
2018-08-19T11:52:19.850Z,100724.25
2018-08-19T11:54:47.510Z,100725.67
2018-08-19T11:57:15.246Z,100727.80
2018-08-19T11:59:44.111Z,100731.53
2018-08-19T12:02:15.318Z,100736.64
2018-08-19T12:04:43.360Z,100734.21
2018-08-19T12:07:11.076Z,100740.66
2018-08-19T12:09:42.560Z,100736.52
2018-08-19T12:12:10.194Z,100750.95
2018-08-19T12:14:37.942Z,100746.24
2018-08-19T12:17:08.514Z,100739.75
2018-08-19T12:19:40.449Z,100735.86
2018-08-19T12:22:09.430Z,100745.90
2018-08-19T12:24:52.484Z,100747.89
2018-08-19T12:27:23.302Z,100744.25
2018-08-19T12:30:00.414Z,100740.50
2018-08-19T12:32:28.609Z,100733.85
2018-08-19T12:34:57.671Z,100726.41
2018-08-19T12:37:26.508Z,100736.67
2018-08-19T12:39:54.888Z,100742.59
2018-08-19T12:42:22.860Z,100738.26
2018-08-19T12:44:54.709Z,100740.89
2018-08-19T12:47:24.127Z,100733.73
2018-08-19T12:49:57.122Z,100740.87
2018-08-19T12:52:27.147Z,100737.50
2018-08-19T12:55:05.637Z,100738.13
2018-08-19T12:57:33.849Z,100746.57
2018-08-19T13:00:18.445Z,100753.11
2018-08-19T13:02:47.760Z,100757.01
2018-08-19T13:05:16.332Z,100748.96
2018-08-19T13:07:44.112Z,100747.84
2018-08-19T13:10:11.845Z,100749.50
2018-08-19T13:12:58.405Z,100752.05
2018-08-19T13:15:28.273Z,100749.09
2018-08-19T13:17:56.069Z,100748.75
2018-08-19T13:20:23.793Z,100745.41
2018-08-19T13:23:00.271Z,100752.77
2018-08-19T13:25:28.313Z,100743.55
2018-08-19T13:27:56.032Z,100745.91
2018-08-19T13:30:23.737Z,100744.43
2018-08-19T13:32:52.035Z,100743.22
2018-08-19T13:35:20.069Z,100741.63
2018-08-19T13:37:47.909Z,100737.75
2018-08-19T13:40:15.717Z,100743.02
2018-08-19T13:42:43.493Z,100738.28
2018-08-19T13:45:15.326Z,100734.59
2018-08-19T13:47:44.475Z,100739.32
2018-08-19T13:50:12.362Z,100739.42
2018-08-19T13:52:40.605Z,100739.84
2018-08-19T13:55:09.727Z,100738.46
2018-08-19T13:57:37.480Z,100747.55
2018-08-19T14:00:08.715Z,100750.25
2018-08-19T14:02:36.455Z,100744.74
2018-08-19T14:05:04.774Z,100744.45
2018-08-19T14:07:32.442Z,100739.95
2018-08-19T14:10:00.115Z,100745.16
2018-08-19T14:12:27.805Z,100745.48
2018-08-19T14:14:55.521Z,100748.86
2018-08-19T14:17:23.212Z,100745.36
2018-08-19T14:19:50.922Z,100747.91
2018-08-19T14:22:18.643Z,100752.61
2018-08-19T14:24:46.352Z,100740.00
2018-08-19T14:27:14.031Z,100746.38
2018-08-19T14:29:41.706Z,100743.05
2018-08-19T14:32:45.534Z,100742.61
2018-08-19T14:35:13.338Z,100743.16
2018-08-19T14:37:41.114Z,100753.59
2018-08-19T14:40:11.109Z,100749.34
2018-08-19T14:42:38.854Z,100760.92
2018-08-19T14:45:06.629Z,100760.08
2018-08-19T14:47:34.337Z,100759.26
2018-08-19T14:50:02.051Z,100761.95
2018-08-19T14:52:29.741Z,100764.13
2018-08-19T14:54:57.488Z,100766.46
2018-08-19T14:57:25.345Z,100762.42
2018-08-19T14:59:53.058Z,100768.13
2018-08-19T15:02:20.939Z,100759.37
2018-08-19T15:04:48.630Z,100767.91
2018-08-19T15:07:16.360Z,100764.72
2018-08-19T15:09:50.269Z,100774.28
2018-08-19T15:12:22.336Z,100763.23
2018-08-19T15:14:50.503Z,100765.55
2018-08-19T15:17:18.200Z,100761.71
2018-08-19T15:19:48.078Z,100761.19
2018-08-19T15:22:15.930Z,100766.08
2018-08-19T15:24:43.690Z,100761.38
2018-08-19T15:27:11.454Z,100762.05
2018-08-19T15:29:40.125Z,100770.22
2018-08-19T15:32:07.922Z,100775.89
2018-08-19T15:34:35.587Z,100778.88
2018-08-19T15:37:03.359Z,100785.23
2018-08-19T15:39:31.108Z,100785.57
2018-08-19T15:41:58.798Z,100784.66
2018-08-19T15:44:26.458Z,100786.13
2018-08-19T15:46:54.132Z,100787.48
2018-08-19T15:49:22.856Z,100793.86
2018-08-19T15:51:50.596Z,100796.73
2018-08-19T15:54:18.345Z,100791.52
2018-08-19T15:56:46.039Z,100795.70
2018-08-19T15:59:13.756Z,100798.70
2018-08-19T16:01:41.530Z,100798.80
2018-08-19T16:04:26.139Z,100803.25
2018-08-19T16:06:54.756Z,100799.55
2018-08-19T16:09:23.897Z,100800.66
2018-08-19T16:11:52.225Z,100790.08
2018-08-19T16:14:23.090Z,100794.28
2018-08-19T16:16:51.241Z,100793.05
2018-08-19T16:19:18.989Z,100792.86
2018-08-19T16:21:48.586Z,100787.15
2018-08-19T16:24:16.348Z,100786.13
2018-08-19T16:26:44.254Z,100795.86
2018-08-19T16:29:12.023Z,100789.79
2018-08-19T16:31:39.854Z,100792.49
2018-08-19T16:34:07.702Z,100792.01
2018-08-19T16:36:35.489Z,100795.52
2018-08-19T16:39:05.256Z,100794.17
2018-08-19T16:41:32.974Z,100794.67
2018-08-19T16:44:00.701Z,100738.52
2018-08-19T16:46:28.429Z,100794.31
2018-08-19T16:48:56.141Z,100794.11
2018-08-19T16:51:23.920Z,100793.60
2018-08-19T16:53:51.632Z,100796.77
2018-08-19T16:56:19.363Z,100803.02
2018-08-19T16:58:47.159Z,100775.21
2018-08-19T17:01:14.855Z,100800.59
2018-08-19T17:03:42.590Z,100797.43
2018-08-19T17:06:12.557Z,100793.23
2018-08-19T17:08:40.816Z,100793.37
2018-08-19T17:11:09.530Z,100792.47
2018-08-19T17:13:37.242Z,100795.33
2018-08-19T17:16:05.005Z,100799.47
2018-08-19T17:18:32.930Z,100797.98
2018-08-19T17:21:00.856Z,100803.17
2018-08-19T17:23:28.649Z,100799.95
2018-08-19T17:26:00.449Z,100804.62
2018-08-19T17:28:28.214Z,100768.25
2018-08-19T17:30:55.938Z,100801.94
2018-08-19T17:33:30.110Z,100804.40
2018-08-19T17:35:57.981Z,100800.86
2018-08-19T17:38:30.642Z,100796.30
2018-08-19T17:40:58.899Z,100685.87
2018-08-19T17:43:32.086Z,100801.73
2018-08-19T17:46:06.789Z,100808.88
2018-08-19T17:48:35.838Z,100814.89
2018-08-19T17:51:09.949Z,100817.16
2018-08-19T17:53:37.635Z,100816.78
2018-08-19T17:56:05.376Z,100818.03
2018-08-19T17:58:33.106Z,100818.12
2018-08-19T18:01:00.794Z,100817.17
2018-08-19T18:03:28.548Z,100819.02
2018-08-19T18:05:56.242Z,100822.83
2018-08-19T18:08:23.983Z,100819.72
2018-08-19T18:10:55.292Z,100820.45
2018-08-19T18:13:23.718Z,100828.23
2018-08-19T18:15:51.406Z,100838.67
2018-08-19T18:18:21.410Z,100844.33
2018-08-19T18:20:49.088Z,100845.11
2018-08-19T18:23:22.382Z,100844.78
2018-08-19T18:25:50.553Z,100852.92
2018-08-19T18:28:23.081Z,100845.50
2018-08-19T18:31:09.727Z,100843.81
2018-08-19T18:33:45.708Z,100853.34
2018-08-19T18:36:13.482Z,100863.98
2018-08-19T18:38:41.407Z,100858.86
2018-08-19T18:41:11.941Z,100853.57
2018-08-19T18:43:39.908Z,100854.63
2018-08-19T18:46:07.706Z,100853.52
2018-08-19T18:48:35.801Z,100857.76
2018-08-19T18:51:03.612Z,100860.78
2018-08-19T18:53:31.404Z,100860.22
2018-08-19T18:55:59.257Z,100867.59
2018-08-19T18:58:27.133Z,100872.36
2018-08-19T19:00:59.070Z,100874.12
2018-08-19T19:03:27.194Z,100880.45
2018-08-19T19:05:54.964Z,100873.58
2018-08-19T19:08:22.657Z,100880.70
2018-08-19T19:10:59.859Z,100850.72
2018-08-19T19:13:28.225Z,100881.76
2018-08-19T19:15:55.987Z,100885.41
2018-08-19T19:18:23.875Z,100892.08
2018-08-19T19:20:57.083Z,100888.11
2018-08-19T19:23:29.620Z,100895.02
2018-08-19T19:25:57.688Z,100897.51
2018-08-19T19:28:25.929Z,100891.56
2018-08-19T19:31:13.645Z,100918.73
2018-08-19T19:33:41.381Z,100895.98
2018-08-19T19:36:15.544Z,100905.73
2018-08-19T19:38:49.237Z,100913.83
2018-08-19T19:41:22.562Z,100905.66
2018-08-19T19:43:50.377Z,100908.41
2018-08-19T19:46:18.098Z,100912.73
2018-08-19T19:48:45.890Z,100907.34
2018-08-19T19:51:13.571Z,100903.10
2018-08-19T19:53:41.295Z,100913.08
2018-08-19T19:56:12.973Z,100908.13
2018-08-19T19:58:41.613Z,100921.48
2018-08-19T20:01:09.300Z,100915.05
2018-08-19T20:03:43.944Z,100921.92
2018-08-19T20:06:12.343Z,100916.30
2018-08-19T20:08:40.058Z,100915.95
2018-08-19T20:11:14.814Z,100911.71
2018-08-19T20:13:42.768Z,100914.34
2018-08-19T20:16:10.481Z,100924.39
2018-08-19T20:18:38.492Z,100914.77
2018-08-19T20:21:11.081Z,100916.22
2018-08-19T20:23:38.901Z,100908.56
2018-08-19T20:26:06.650Z,100914.49
2018-08-19T20:28:34.328Z,100916.80
2018-08-19T20:31:02.012Z,100908.23
2018-08-19T20:33:29.723Z,100913.25
2018-08-19T20:35:57.561Z,100914.23
2018-08-19T20:38:25.757Z,100912.95
2018-08-19T20:40:54.349Z,100925.32
2018-08-19T20:43:23.135Z,100934.86
2018-08-19T20:45:50.835Z,100933.36
2018-08-19T20:48:19.686Z,100929.34
2018-08-19T20:50:48.072Z,100928.44
2018-08-19T20:53:15.957Z,100933.61
2018-08-19T20:55:43.654Z,100940.08
2018-08-19T20:58:11.385Z,100937.02
2018-08-19T21:00:39.066Z,100939.70
2018-08-19T21:03:07.446Z,100947.69
2018-08-19T21:05:35.403Z,100942.88
2018-08-19T21:08:11.817Z,100940.21
2018-08-19T21:10:42.354Z,100940.98
2018-08-19T21:13:12.101Z,100944.44
2018-08-19T21:15:41.325Z,100944.61
2018-08-19T21:18:09.078Z,100952.25
2018-08-19T21:20:36.781Z,100950.36
2018-08-19T21:23:05.098Z,100964.13
2018-08-19T21:25:33.214Z,100963.27
2018-08-19T21:28:00.912Z,100967.22
2018-08-19T21:30:28.795Z,100959.69
2018-08-19T21:32:56.931Z,100961.39
2018-08-19T21:35:24.756Z,100961.73
2018-08-19T21:37:52.622Z,100956.40
2018-08-19T21:40:28.326Z,100955.28
2018-08-19T21:42:57.067Z,100960.25
2018-08-19T21:45:24.750Z,100961.84
2018-08-19T21:47:52.764Z,100964.91
2018-08-19T21:50:20.427Z,100962.45
2018-08-19T21:52:59.255Z,100963.11
2018-08-19T21:55:35.493Z,100967.83
2018-08-19T21:58:03.779Z,100971.76
2018-08-19T22:00:34.173Z,100966.16
2018-08-19T22:03:07.666Z,100963.88
2018-08-19T22:05:35.434Z,100967.52
2018-08-19T22:08:04.175Z,100968.70
2018-08-19T22:10:32.862Z,100974.14
2018-08-19T22:13:00.643Z,100978.28
2018-08-19T22:15:32.225Z,100974.92
2018-08-19T22:18:00.429Z,100975.84
2018-08-19T22:20:28.129Z,100976.62
2018-08-19T22:22:55.796Z,100975.12
2018-08-19T22:25:24.071Z,100980.02
2018-08-19T22:27:51.752Z,100985.69
2018-08-19T22:30:19.675Z,100984.00
2018-08-19T22:32:47.460Z,100976.47
2018-08-19T22:35:15.566Z,100976.48
2018-08-19T22:37:43.398Z,100966.69
2018-08-19T22:40:11.076Z,100968.13
2018-08-19T22:42:38.755Z,100970.23
2018-08-19T22:45:06.560Z,100977.25
2018-08-19T22:47:34.220Z,100981.31
2018-08-19T22:50:01.878Z,100978.08
2018-08-19T22:52:29.539Z,100930.55
2018-08-19T22:54:58.358Z,100973.01
2018-08-19T22:57:26.717Z,100972.52
2018-08-19T22:59:54.481Z,100967.79
2018-08-19T23:02:22.869Z,100958.72
2018-08-19T23:07:24.618Z,100957.28
2018-08-19T23:09:52.276Z,100965.42
2018-08-19T23:12:19.944Z,100957.78
2018-08-19T23:14:58.847Z,100920.18
2018-08-19T23:17:26.528Z,100968.75
2018-08-19T23:19:54.190Z,100931.23
2018-08-19T23:22:22.017Z,100953.33
2018-08-19T23:24:49.682Z,100944.25
2018-08-19T23:27:17.338Z,100958.20
2018-08-19T23:29:45.001Z,100955.30
2018-08-19T23:32:12.716Z,100955.49
2018-08-19T23:34:40.381Z,100943.89
2018-08-19T23:37:08.101Z,100952.88
2018-08-19T23:39:35.769Z,100945.41
2018-08-19T23:42:03.516Z,100938.91
2018-08-19T23:44:31.213Z,100945.02
2018-08-19T23:46:58.884Z,100945.58
2018-08-19T23:49:26.544Z,100952.41
2018-08-19T23:51:54.214Z,100949.19
2018-08-19T23:54:21.869Z,100952.05
2018-08-19T23:56:49.532Z,100950.38
2018-08-19T23:59:33.893Z,100948.80
